Sycamore, Georgia
Current Conditions -  °F | °C
As of 7:35 PM on Saturday 20 Dec 2014 (Local Time) from KTMA Reporting Station
Light Rain Light Rain  
Wind Chill: 54°   Ceiling: 9000
Heat Index: 54°   Visibility: 10mi
Dew Point: 51°   Wind: 3mph
Humidity: 90%   Direction: 30°NNE
Pressure: 30.15"   Gusts: NA
Location:  31.67°N, 83.64°W
Report Text: KTMA 210035Z AUTO 03003KT 10SM -RA OVC090 12/11 A3015 RMK AO2 T01220106
Loading
Personal Weather Stations






























Interactive Weather Map New forecast layout! Learn more

10-Day Weather Forecast

Advertisements
Track Severe Weather on mobile